Time;durP1;ratioP1;P1;durP2;ratioP2;P2;SDS_P1;SDS_P2;PMS_P1;PMS_P2;Temp;Humidity;BMP_temperature;BMP_pressure;BME280_temperature;BME280_humidity;BME280_pressure;Samples;Min_cycle;Max_cycle;Signal;HPM_P1;HPM_P2
2022/05/30 00:00:50;;;;;;;2.63;0.93;;;12.60;61.60;;;;;;5110460;28;20111;-74
2022/05/30 00:03:17;;;;;;;2.28;0.60;;;12.60;61.60;;;;;;5091332;28;20100;-72
2022/05/30 00:05:48;;;;;;;2.85;1.10;;;12.50;61.70;;;;;;5110049;28;20029;-72
2022/05/30 00:08:16;;;;;;;2.10;0.80;;;12.40;61.80;;;;;;5110338;28;20109;-73
2022/05/30 00:10:42;;;;;;;3.95;1.00;;;12.30;61.80;;;;;;5091976;28;20051;-73
2022/05/30 00:13:07;;;;;;;1.88;0.77;;;12.20;61.90;;;;;;5110351;28;20381;-74
2022/05/30 00:15:33;;;;;;;3.50;0.90;;;12.10;61.90;;;;;;5110105;28;20106;-73
2022/05/30 00:17:59;;;;;;;1.33;0.68;;;12.00;62.00;;;;;;5091755;28;20028;-72
2022/05/30 00:20:26;;;;;;;1.77;0.70;;;12.00;62.10;;;;;;5091891;28;20039;-72
2022/05/30 00:22:52;;;;;;;3.10;0.88;;;11.90;62.20;;;;;;5110156;28;20470;-72
2022/05/30 00:25:18;;;;;;;4.80;1.10;;;11.80;62.30;;;;;;5109960;28;20077;-74
2022/05/30 00:27:44;;;;;;;;;;;11.70;62.40;;;;;;5110353;28;20553;-74
2022/05/30 00:30:11;;;;;;;3.45;1.13;;;11.70;62.40;;;;;;5109937;28;19914;-74
2022/05/30 00:32:37;;;;;;;4.45;1.10;;;11.60;62.30;;;;;;5109844;28;20020;-74
2022/05/30 00:35:04;;;;;;;2.60;1.05;;;11.50;62.40;;;;;;5091560;28;20092;-72
2022/05/30 00:37:30;;;;;;;2.78;0.70;;;11.50;62.50;;;;;;5109743;28;20019;-72
2022/05/30 00:39:55;;;;;;;6.57;1.15;;;11.40;62.70;;;;;;5109766;28;20099;-72
2022/05/30 00:42:24;;;;;;;3.05;1.10;;;11.30;62.70;;;;;;5091472;28;20069;-73
2022/05/30 00:44:50;;;;;;;3.10;1.00;;;11.30;62.90;;;;;;5109588;28;20489;-73
2022/05/30 00:47:19;;;;;;;4.22;1.00;;;11.30;63.00;;;;;;5109565;28;20036;-73
2022/05/30 00:49:47;;;;;;;4.40;1.17;;;11.30;63.20;;;;;;5109541;28;20028;-72
2022/05/30 00:52:31;;;;;;;1.60;0.80;;;11.30;63.30;;;;;;5109559;28;20028;-73
2022/05/30 00:55:02;;;;;;;3.35;0.82;;;11.30;63.50;;;;;;5109450;28;20448;-72
2022/05/30 00:57:30;;;;;;;2.53;0.88;;;11.40;63.40;;;;;;5109371;28;20020;-73
2022/05/30 01:00:17;;;;;;;2.95;1.02;;;11.50;63.50;;;;;;5109471;28;20039;-74
2022/05/30 01:02:45;;;;;;;3.67;1.10;;;11.60;63.80;;;;;;5109177;28;20590;-74
2022/05/30 01:08:00;;;;;;;5.13;1.20;;;11.70;63.90;;;;;;5109449;28;20319;-74
2022/05/30 01:10:26;;;;;;;2.85;1.05;;;11.70;63.70;;;;;;5109133;28;20030;-72
2022/05/30 01:12:55;;;;;;;4.13;1.10;;;11.70;63.60;;;;;;5090853;28;20029;-72
2022/05/30 01:15:24;;;;;;;7.18;1.00;;;11.80;63.60;;;;;;5108810;28;20498;-72
2022/05/30 01:17:59;;;;;;;2.60;1.10;;;11.70;63.50;;;;;;5108892;28;20362;-73
2022/05/30 01:20:43;;;;;;;4.88;1.05;;;11.70;63.50;;;;;;5108990;28;20437;-72
2022/05/30 01:23:09;;;;;;;5.15;1.20;;;11.80;63.90;;;;;;5109116;28;20024;-73
2022/05/30 01:26:03;;;;;;;2.92;1.17;;;11.80;63.80;;;;;;5108834;28;20024;-74
2022/05/30 01:29:01;;;;;;;2.75;1.20;;;11.80;63.90;;;;;;5090393;28;20038;-72
2022/05/30 01:31:28;;;;;;;2.65;1.00;;;11.80;63.90;;;;;;5108158;28;20028;-73
2022/05/30 01:33:54;;;;;;;3.25;1.30;;;11.80;63.80;;;;;;5108567;28;20034;-73
2022/05/30 01:36:25;;;;;;;2.88;1.00;;;11.80;63.90;;;;;;5090314;28;20385;-72
2022/05/30 01:38:51;;;;;;;2.13;0.93;;;11.80;63.90;;;;;;5108644;28;20027;-73
2022/05/30 01:41:17;;;;;;;3.03;1.00;;;11.80;63.90;;;;;;5108511;28;20489;-73
2022/05/30 01:43:44;;;;;;;5.03;1.38;;;11.90;64.00;;;;;;5108496;28;20390;-73
2022/05/30 01:46:14;;;;;;;2.67;1.02;;;11.90;64.00;;;;;;5108530;28;20030;-72
2022/05/30 01:48:39;;;;;;;3.30;1.20;;;11.80;63.90;;;;;;5090139;28;20019;-74
2022/05/30 01:51:06;;;;;;;6.53;1.17;;;11.80;64.00;;;;;;5108558;28;20039;-72
2022/05/30 01:53:31;;;;;;;2.58;1.05;;;11.70;64.00;;;;;;5108260;28;20027;-72
2022/05/30 01:55:57;;;;;;;4.43;1.02;;;11.80;64.10;;;;;;5090222;28;20034;-74
2022/05/30 01:58:23;;;;;;;2.03;0.95;;;11.80;64.20;;;;;;5108258;28;20106;-74
2022/05/30 02:00:49;;;;;;;6.30;1.30;;;11.70;64.20;;;;;;5108229;28;20027;-72
2022/05/30 02:03:15;;;;;;;2.17;0.95;;;11.70;64.30;;;;;;5108059;28;20044;-72
2022/05/30 02:05:41;;;;;;;3.20;1.17;;;11.70;64.40;;;;;;5108542;28;20497;-74
2022/05/30 02:08:07;;;;;;;4.75;1.38;;;11.80;64.50;;;;;;5056379;28;20085;-72
2022/05/30 02:10:35;;;;;;;3.55;1.00;;;11.80;64.60;;;;;;5089874;28;20077;-74
2022/05/30 02:13:02;;;;;;;9.60;1.48;;;11.80;64.50;;;;;;5108051;28;20392;-74
2022/05/30 02:15:28;;;;;;;4.05;1.60;;;11.70;64.60;;;;;;5107900;28;20034;-73
2022/05/30 02:17:54;;;;;;;5.40;1.63;;;11.70;64.70;;;;;;5107893;28;20024;-72
2022/05/30 02:20:21;;;;;;;3.78;1.38;;;11.70;64.80;;;;;;5108024;28;20310;-74
2022/05/30 02:22:46;;;;;;;2.83;0.88;;;11.70;64.80;;;;;;5089656;28;20493;-72
2022/05/30 02:25:13;;;;;;;2.42;1.00;;;11.70;64.90;;;;;;5107869;28;20027;-73
2022/05/30 02:27:41;;;;;;;;;;;11.70;64.90;;;;;;5107761;28;20413;-71
2022/05/30 02:30:08;;;;;;;7.72;1.77;;;11.60;64.80;;;;;;5107862;28;19907;-71
2022/05/30 02:32:33;;;;;;;3.42;1.20;;;11.60;64.70;;;;;;5089707;28;20036;-72
2022/05/30 02:37:43;;;;;;;5.25;1.60;;;11.50;65.00;;;;;;5108000;28;20076;-73
2022/05/30 02:40:09;;;;;;;2.88;1.30;;;11.50;65.10;;;;;;5107760;28;20107;-72
2022/05/30 02:42:35;;;;;;;3.75;1.42;;;11.50;65.20;;;;;;5107806;28;20031;-73
2022/05/30 02:45:01;;;;;;;2.90;1.80;;;11.40;65.30;;;;;;5107854;28;20041;-74
2022/05/30 02:47:27;;;;;;;5.20;1.70;;;11.40;65.40;;;;;;5107621;28;20099;-74
2022/05/30 02:49:52;;;;;;;2.85;1.52;;;11.40;65.50;;;;;;5089469;28;20024;-74
2022/05/30 02:52:18;;;;;;;2.63;1.60;;;11.40;65.60;;;;;;5107735;28;20032;-74
2022/05/30 02:54:44;;;;;;;7.65;2.20;;;11.30;65.70;;;;;;5107661;28;20070;-74
2022/05/30 02:57:10;;;;;;;3.08;1.60;;;11.30;65.70;;;;;;5108054;28;20024;-72
2022/05/30 02:59:36;;;;;;;2.95;1.77;;;11.40;65.90;;;;;;5107582;28;20019;-74
2022/05/30 03:02:02;;;;;;;3.80;1.90;;;11.30;65.90;;;;;;5089208;28;20375;-75
2022/05/30 03:04:27;;;;;;;6.05;2.67;;;11.30;66.00;;;;;;5089431;28;20485;-74
2022/05/30 03:06:53;;;;;;;9.02;2.53;;;11.40;66.10;;;;;;5089351;28;20024;-76
2022/05/30 03:09:19;;;;;;;4.88;2.22;;;11.40;66.10;;;;;;5089371;28;20031;-73
2022/05/30 03:11:45;;;;;;;6.40;2.88;;;11.40;66.20;;;;;;5107623;28;20088;-72
2022/05/30 03:14:11;;;;;;;7.93;2.65;;;11.50;66.30;;;;;;5089159;28;20027;-74
2022/05/30 03:16:36;;;;;;;9.60;4.65;;;11.50;66.40;;;;;;5089288;28;20027;-73
2022/05/30 03:19:02;;;;;;;6.75;5.32;;;11.60;66.50;;;;;;5089181;28;20386;-75
2022/05/30 03:21:28;;;;;;;8.95;5.80;;;11.60;66.60;;;;;;5072217;28;20413;-74
2022/05/30 03:23:54;;;;;;;8.40;7.60;;;11.60;66.50;;;;;;5072428;28;20394;-74
2022/05/30 03:26:19;;;;;;;8.50;7.90;;;11.60;66.50;;;;;;5089218;28;20035;-71
2022/05/30 03:28:45;;;;;;;9.48;8.82;;;11.70;66.60;;;;;;5107312;28;20610;-70
2022/05/30 03:31:11;;;;;;;9.15;8.50;;;11.60;66.60;;;;;;5089280;28;20534;-72
2022/05/30 03:33:38;;;;;;;9.05;8.30;;;11.60;66.70;;;;;;5107290;28;20032;-73
2022/05/30 03:36:27;;;;;;;10.25;9.55;;;11.50;66.80;;;;;;5107232;28;20474;-72
2022/05/30 03:38:53;;;;;;;9.45;8.95;;;11.50;66.90;;;;;;5107801;28;20031;-71
2022/05/30 03:41:19;;;;;;;10.13;9.43;;;11.50;66.90;;;;;;5092706;28;20023;-71
2022/05/30 03:43:45;;;;;;;10.02;9.45;;;11.50;67.00;;;;;;5092623;28;20033;-72
2022/05/30 03:46:11;;;;;;;8.82;8.02;;;11.50;67.20;;;;;;5110871;28;20035;-74
2022/05/30 03:48:37;;;;;;;9.20;8.57;;;11.40;67.10;;;;;;5111087;28;20034;-73
2022/05/30 03:51:05;;;;;;;9.80;9.10;;;11.40;67.20;;;;;;5110748;28;20040;-72
2022/05/30 03:53:31;;;;;;;17.77;9.82;;;11.40;67.30;;;;;;5110307;28;20015;-72
2022/05/30 03:55:56;;;;;;;9.88;9.07;;;11.30;67.30;;;;;;5110378;28;20035;-73
2022/05/30 03:58:22;;;;;;;11.65;10.85;;;11.30;67.40;;;;;;5110393;28;20178;-72
2022/05/30 04:00:48;;;;;;;12.10;11.20;;;11.20;67.50;;;;;;5092042;28;20028;-72
2022/05/30 04:03:14;;;;;;;11.70;10.88;;;11.10;67.50;;;;;;5091978;28;20044;-72
2022/05/30 04:05:40;;;;;;;13.20;12.40;;;11.10;67.60;;;;;;5110308;28;20096;-72
2022/05/30 04:08:06;;;;;;;;;;;11.10;67.80;;;;;;5110803;28;20523;-71
2022/05/30 04:10:32;;;;;;;11.55;10.65;;;11.10;67.90;;;;;;5110331;28;20397;-72
2022/05/30 04:13:04;;;;;;;12.15;11.35;;;11.10;67.80;;;;;;5075352;28;20028;-74
2022/05/30 04:15:30;;;;;;;13.73;12.73;;;11.10;67.90;;;;;;5110205;28;20033;-72
2022/05/30 04:17:55;;;;;;;14.98;14.00;;;11.10;67.90;;;;;;5092146;28;20082;-73
2022/05/30 04:20:21;;;;;;;15.82;14.88;;;11.10;68.00;;;;;;5110125;28;20107;-72
2022/05/30 04:22:47;;;;;;;18.10;16.30;;;11.20;68.10;;;;;;5110051;28;20102;-72
2022/05/30 04:25:13;;;;;;;17.70;16.60;;;11.20;68.20;;;;;;5110010;28;20042;-71
2022/05/30 04:27:39;;;;;;;19.20;17.83;;;11.30;68.20;;;;;;5091751;28;20110;-72
2022/05/30 04:30:07;;;;;;;18.80;17.73;;;11.40;68.30;;;;;;5110027;28;20031;-72
2022/05/30 04:32:34;;;;;;;19.70;18.60;;;11.40;68.30;;;;;;5091462;28;20032;-72
2022/05/30 04:35:01;;;;;;;18.77;17.38;;;11.50;68.30;;;;;;5109740;28;20027;-71
2022/05/30 04:37:30;;;;;;;17.83;16.83;;;11.50;68.40;;;;;;5109780;28;20027;-72
2022/05/30 04:39:55;;;;;;;18.42;16.98;;;11.50;68.50;;;;;;5091426;28;20106;-74
2022/05/30 04:42:21;;;;;;;18.48;17.20;;;11.50;68.50;;;;;;5091510;28;20525;-73
2022/05/30 04:44:47;;;;;;;18.50;17.27;;;11.60;68.60;;;;;;5110125;28;20028;-72
2022/05/30 04:47:13;;;;;;;17.48;16.17;;;11.60;68.50;;;;;;5091187;28;20028;-74
2022/05/30 04:49:39;;;;;;;17.73;16.73;;;11.70;68.60;;;;;;5090965;28;20067;-73
2022/05/30 04:52:05;;;;;;;16.92;15.93;;;11.70;68.60;;;;;;5109699;28;20579;-74
2022/05/30 04:54:31;;;;;;;;;;;11.70;68.60;;;;;;5110006;28;20497;-72
2022/05/30 04:56:57;;;;;;;15.48;14.35;;;11.80;68.50;;;;;;5109352;28;19907;-72
2022/05/30 04:59:22;;;;;;;16.83;15.93;;;11.80;68.40;;;;;;5109379;28;20062;-73
2022/05/30 05:01:48;;;;;;;17.40;16.25;;;11.80;68.50;;;;;;5091103;28;20047;-73
2022/05/30 05:04:14;;;;;;;15.07;14.27;;;11.90;68.60;;;;;;5109146;28;20036;-74
2022/05/30 05:06:43;;;;;;;16.45;15.05;;;11.90;68.60;;;;;;5109097;28;20042;-72
2022/05/30 05:09:17;;;;;;;19.27;16.42;;;11.90;68.70;;;;;;5109438;28;20031;-73
2022/05/30 05:11:45;;;;;;;16.95;15.82;;;11.90;68.90;;;;;;5109222;28;20158;-71
2022/05/30 05:14:11;;;;;;;16.17;15.32;;;12.00;68.90;;;;;;5110447;28;20071;-72
2022/05/30 05:16:37;;;;;;;16.63;15.45;;;12.00;68.90;;;;;;5109166;28;20038;-71
2022/05/30 05:19:04;;;;;;;17.27;15.98;;;12.00;68.90;;;;;;5108989;28;20027;-74
2022/05/30 05:21:35;;;;;;;17.58;16.40;;;12.00;68.90;;;;;;5109132;28;20022;-73
2022/05/30 05:24:02;;;;;;;16.20;14.75;;;12.10;69.60;;;;;;5108919;28;20436;-74
2022/05/30 05:26:28;;;;;;;17.50;16.05;;;12.10;69.10;;;;;;5108671;28;20517;-74
2022/05/30 05:28:55;;;;;;;16.88;15.63;;;12.10;69.20;;;;;;5108639;28;20027;-73
2022/05/30 05:31:34;;;;;;;16.23;15.13;;;12.20;69.20;;;;;;5073858;28;20113;-73
2022/05/30 05:34:05;;;;;;;14.65;13.75;;;12.10;69.40;;;;;;5108650;28;20027;-72
2022/05/30 05:36:34;;;;;;;15.30;14.20;;;12.20;69.30;;;;;;5108536;28;20071;-73
2022/05/30 05:39:00;;;;;;;14.15;13.35;;;12.20;69.40;;;;;;5108453;28;20026;-73
2022/05/30 05:41:26;;;;;;;15.55;14.40;;;12.30;69.40;;;;;;5108612;28;20077;-74
2022/05/30 05:43:54;;;;;;;14.63;13.50;;;12.30;69.40;;;;;;5108515;28;20035;-75
2022/05/30 05:46:23;;;;;;;15.30;14.13;;;12.30;69.40;;;;;;5108298;28;20031;-72
2022/05/30 05:48:50;;;;;;;14.65;13.65;;;12.30;69.40;;;;;;5108263;28;20107;-72
2022/05/30 05:51:18;;;;;;;14.98;13.68;;;12.40;69.40;;;;;;5108755;28;20088;-72
2022/05/30 05:53:44;;;;;;;14.70;13.85;;;12.40;69.40;;;;;;5107967;28;20027;-74
2022/05/30 05:56:11;;;;;;;16.27;15.07;;;12.40;69.40;;;;;;5108314;28;20077;-74
2022/05/30 05:58:36;;;;;;;15.55;14.43;;;12.40;69.40;;;;;;5108083;28;20394;-74
2022/05/30 06:01:10;;;;;;;13.85;12.75;;;12.40;69.50;;;;;;5107907;28;20024;-74
2022/05/30 06:03:36;;;;;;;13.68;12.77;;;12.40;69.60;;;;;;5107528;28;20135;-70
2022/05/30 06:06:05;;;;;;;12.18;11.15;;;12.50;69.70;;;;;;5108110;28;20065;-72
2022/05/30 06:08:32;;;;;;;14.13;13.02;;;12.50;69.70;;;;;;5107895;28;20376;-74
2022/05/30 06:11:11;;;;;;;15.02;13.82;;;12.50;69.50;;;;;;5108064;28;20053;-74
2022/05/30 06:13:39;;;;;;;11.63;10.82;;;12.50;69.60;;;;;;5107944;28;20019;-74
2022/05/30 06:16:11;;;;;;;14.13;12.90;;;12.50;69.80;;;;;;5107609;28;20023;-73
2022/05/30 06:18:37;;;;;;;13.60;12.52;;;12.60;69.90;;;;;;5107560;28;20096;-73
2022/05/30 06:21:03;;;;;;;14.32;13.02;;;12.60;69.80;;;;;;5089490;28;20024;-74
2022/05/30 06:23:29;;;;;;;13.23;12.52;;;12.60;69.80;;;;;;5107726;28;20040;-74
2022/05/30 06:25:55;;;;;;;12.43;11.57;;;12.70;69.80;;;;;;5107790;28;20020;-75
2022/05/30 06:28:21;;;;;;;11.32;10.50;;;12.60;69.80;;;;;;5107403;28;20449;-72
2022/05/30 06:30:47;;;;;;;11.70;10.85;;;12.70;69.90;;;;;;5089628;28;20457;-72
2022/05/30 06:33:13;;;;;;;12.18;11.07;;;12.70;69.90;;;;;;5089378;28;20118;-74
2022/05/30 06:35:44;;;;;;;10.77;10.07;;;12.80;69.80;;;;;;5107255;28;20035;-72
2022/05/30 06:38:11;;;;;;;12.68;10.23;;;12.90;69.80;;;;;;5107044;28;20054;-73
2022/05/30 06:40:37;;;;;;;10.88;8.98;;;12.90;69.70;;;;;;5107887;28;20027;-74
2022/05/30 06:43:03;;;;;;;8.68;7.85;;;12.90;69.70;;;;;;5108006;28;20370;-73
2022/05/30 06:45:30;;;;;;;13.43;8.68;;;13.00;69.70;;;;;;5107584;28;20070;-74
2022/05/30 06:47:55;;;;;;;8.80;7.45;;;13.00;69.70;;;;;;5089316;28;20482;-72
2022/05/30 06:50:21;;;;;;;8.65;8.05;;;13.10;69.60;;;;;;5107329;28;20039;-70
2022/05/30 06:52:47;;;;;;;9.80;8.93;;;13.10;69.60;;;;;;5106982;28;20027;-72
2022/05/30 06:55:12;;;;;;;7.93;7.22;;;13.10;69.50;;;;;;5088922;28;20082;-72
2022/05/30 07:00:22;;;;;;;10.73;9.65;;;13.10;69.40;;;;;;5107550;28;20074;-73
2022/05/30 07:02:48;;;;;;;11.63;10.55;;;13.10;69.50;;;;;;5072067;28;20075;-72
2022/05/30 07:05:14;;;;;;;12.45;11.15;;;13.10;69.60;;;;;;5107363;28;20393;-72
2022/05/30 07:07:41;;;;;;;13.23;12.02;;;13.10;69.70;;;;;;5107031;28;20028;-71
2022/05/30 07:10:08;;;;;;;13.07;12.27;;;13.10;69.80;;;;;;5072224;28;20119;-70
2022/05/30 07:12:34;;;;;;;16.83;15.52;;;13.10;70.00;;;;;;5088749;28;20466;-72
2022/05/30 07:14:59;;;;;;;15.27;14.40;;;13.20;70.00;;;;;;5111629;28;20039;-72
2022/05/30 07:17:25;;;;;;;22.77;21.15;;;13.20;70.10;;;;;;5110932;28;20028;-72
2022/05/30 07:19:52;;;;;;;25.85;24.27;;;13.20;70.10;;;;;;5111197;28;20106;-71
2022/05/30 07:22:18;;;;;;;25.75;24.55;;;13.20;70.10;;;;;;5111007;28;20057;-72
2022/05/30 07:24:44;;;;;;;29.80;28.20;;;13.20;70.20;;;;;;5111055;28;20473;-73
2022/05/30 07:27:10;;;;;;;29.92;28.33;;;13.20;70.40;;;;;;5092364;28;20047;-72
2022/05/30 07:29:36;;;;;;;;;;;13.20;70.60;;;;;;5110891;28;20065;-72
2022/05/30 07:32:03;;;;;;;26.33;25.02;;;13.20;70.70;;;;;;5092504;28;19947;-72
2022/05/30 07:34:30;;;;;;;30.42;28.65;;;13.30;70.50;;;;;;5110728;28;20382;-72
2022/05/30 07:36:58;;;;;;;26.55;25.35;;;13.40;70.60;;;;;;5110795;28;20028;-72
2022/05/30 07:39:24;;;;;;;28.95;27.45;;;13.50;70.60;;;;;;5110493;28;20098;-72
2022/05/30 07:41:50;;;;;;;28.70;27.30;;;13.50;70.50;;;;;;5091860;28;20331;-72
2022/05/30 07:44:16;;;;;;;29.40;28.10;;;13.50;70.60;;;;;;5110152;28;20415;-73
2022/05/30 07:46:44;;;;;;;30.60;28.67;;;13.50;70.60;;;;;;5110035;28;20169;-72
2022/05/30 07:49:12;;;;;;;29.05;27.30;;;13.50;70.80;;;;;;5091912;28;20027;-74
2022/05/30 07:51:37;;;;;;;31.88;29.88;;;13.50;70.90;;;;;;5110665;28;20033;-72
2022/05/30 07:54:04;;;;;;;31.73;30.27;;;13.60;70.90;;;;;;5110043;28;20027;-73
2022/05/30 07:56:30;;;;;;;32.58;30.58;;;13.70;71.00;;;;;;5109802;28;20121;-73
2022/05/30 07:58:56;;;;;;;36.70;34.67;;;13.70;71.00;;;;;;5091729;28;20472;-72
2022/05/30 08:01:22;;;;;;;35.72;34.15;;;13.90;71.20;;;;;;5091523;28;20032;-73
2022/05/30 08:03:49;;;;;;;;;;;14.10;71.20;;;;;;5109974;28;20136;-72
2022/05/30 08:06:19;;;;;;;35.13;32.92;;;14.50;71.30;;;;;;5109633;28;20002;-74
2022/05/30 08:08:45;;;;;;;31.58;30.10;;;14.90;71.00;;;;;;5109870;28;20024;-72
2022/05/30 08:11:12;;;;;;;26.67;25.25;;;15.30;70.80;;;;;;5091276;28;20031;-71
2022/05/30 08:13:38;;;;;;;30.05;28.58;;;15.60;70.40;;;;;;5091365;28;20043;-71
2022/05/30 08:16:04;;;;;;;;;;;15.90;70.10;;;;;;5091791;28;20382;-71
2022/05/30 08:18:32;;;;;;;25.65;24.25;;;16.10;69.80;;;;;;5109522;28;19958;-73
2022/05/30 08:20:58;;;;;;;23.08;21.48;;;16.30;69.60;;;;;;5110165;28;20019;-72
2022/05/30 08:23:24;;;;;;;23.23;21.67;;;16.50;69.50;;;;;;5091389;28;20130;-72
2022/05/30 08:25:51;;;;;;;18.17;16.98;;;16.70;69.50;;;;;;5108640;28;20050;-72
2022/05/30 08:28:16;;;;;;;18.42;17.42;;;16.90;69.20;;;;;;5108872;28;20135;-73
2022/05/30 08:30:43;;;;;;;11.10;10.30;;;16.90;68.70;;;;;;5109285;28;20098;-71
2022/05/30 08:33:11;;;;;;;11.23;10.32;;;16.90;68.60;;;;;;5109304;28;20094;-73
2022/05/30 08:35:37;;;;;;;7.05;6.40;;;16.80;68.60;;;;;;5108321;28;20032;-73
2022/05/30 08:38:03;;;;;;;11.23;10.07;;;16.80;68.60;;;;;;5091100;28;20016;-71
2022/05/30 08:43:37;;;;;;;6.60;4.30;;;17.00;68.40;;;;;;5109206;28;20496;-73
2022/05/30 08:46:18;;;;;;;5.90;5.40;;;17.10;68.20;;;;;;5091264;28;20080;-71
2022/05/30 08:48:54;;;;;;;6.50;4.80;;;17.10;67.90;;;;;;5090747;28;20016;-72
2022/05/30 08:51:55;;;;;;;7.32;5.60;;;17.20;67.90;;;;;;5109149;28;20408;-73
2022/05/30 08:54:37;;;;;;;7.60;4.15;;;17.30;67.90;;;;;;5108905;28;20102;-71
2022/05/30 08:57:07;;;;;;;6.68;4.97;;;17.40;67.90;;;;;;5090428;28;20253;-71
2022/05/30 08:59:56;;;;;;;6.75;3.40;;;17.70;67.90;;;;;;5109049;28;20134;-72
2022/05/30 09:02:30;;;;;;;6.97;2.25;;;17.90;67.70;;;;;;5109608;28;20050;-74
2022/05/30 09:05:07;;;;;;;7.18;2.33;;;18.30;67.20;;;;;;5109405;28;20068;-73
2022/05/30 09:07:41;;;;;;;8.82;2.10;;;18.70;67.10;;;;;;5108376;28;20084;-75
2022/05/30 09:10:17;;;;;;;6.90;2.08;;;19.00;66.90;;;;;;5106538;28;20065;-74
2022/05/30 09:13:06;;;;;;;7.93;1.40;;;19.20;66.10;;;;;;5107210;28;20122;-74
2022/05/30 09:15:40;;;;;;;7.53;1.17;;;19.30;65.70;;;;;;5107846;28;20334;-73
2022/05/30 09:18:15;;;;;;;8.27;1.30;;;19.40;65.60;;;;;;5108284;28;20026;-73
2022/05/30 09:20:41;;;;;;;6.68;1.60;;;19.50;64.90;;;;;;5108056;28;20039;-74
2022/05/30 09:23:09;;;;;;;5.63;1.23;;;19.70;64.60;;;;;;5108413;28;20023;-74
2022/05/30 09:25:56;;;;;;;10.00;1.50;;;19.70;64.00;;;;;;5106306;28;20028;-71
2022/05/30 09:28:25;;;;;;;5.13;1.88;;;19.90;63.70;;;;;;5106582;28;20027;-73
2022/05/30 09:31:25;;;;;;;4.18;1.65;;;20.20;64.00;;;;;;5108592;28;20450;-73
2022/05/30 09:33:56;;;;;;;8.65;1.80;;;20.40;62.70;;;;;;5107895;28;20049;-73
2022/05/30 09:36:25;;;;;;;5.55;1.35;;;20.80;63.40;;;;;;5107854;28;20020;-75
2022/05/30 09:39:00;;;;;;;5.13;1.42;;;21.60;62.40;;;;;;5107193;28;20019;-74
2022/05/30 09:41:40;;;;;;;4.15;1.60;;;22.20;61.10;;;;;;5108431;28;20366;-73
2022/05/30 09:44:17;;;;;;;5.15;1.40;;;22.50;59.70;;;;;;5108093;28;20471;-74
2022/05/30 09:47:06;;;;;;;4.47;1.15;;;22.50;59.00;;;;;;5089612;28;20041;-74
2022/05/30 09:49:52;;;;;;;5.35;1.17;;;22.70;58.80;;;;;;5108312;28;20049;-73
2022/05/30 09:52:39;;;;;;;3.47;1.20;;;22.80;57.50;;;;;;5108110;28;20020;-73
2022/05/30 09:55:41;;;;;;;5.53;1.13;;;22.80;57.10;;;;;;5108682;28;20032;-74
2022/05/30 09:58:07;;;;;;;4.22;1.00;;;22.70;56.50;;;;;;5075567;28;20031;-73
2022/05/30 10:00:37;;;;;;;;;;;22.20;56.30;;;;;;5109190;28;20465;-72
2022/05/30 10:03:09;;;;;;;3.80;1.90;;;21.50;56.50;;;;;;5108201;28;20356;-75
2022/05/30 10:05:37;;;;;;;4.55;1.30;;;20.80;57.10;;;;;;5108883;28;20034;-75
2022/05/30 10:08:19;;;;;;;4.13;0.90;;;20.30;57.50;;;;;;5108480;28;20059;-72
2022/05/30 10:10:51;;;;;;;3.65;1.20;;;19.90;57.90;;;;;;5108942;28;20087;-73
2022/05/30 10:13:33;;;;;;;3.20;0.93;;;19.60;58.60;;;;;;5108945;28;20061;-73
2022/05/30 10:16:00;;;;;;;5.70;1.30;;;19.20;58.40;;;;;;5090582;28;20481;-73
2022/05/30 10:18:29;;;;;;;2.15;0.90;;;19.00;58.50;;;;;;5108707;28;20031;-72
2022/05/30 10:21:15;;;;;;;6.10;1.42;;;18.90;58.50;;;;;;5108775;28;20026;-72
2022/05/30 10:30:28;;;;;;;5.53;1.27;;;22.00;59.10;;;;;;5108577;28;20039;-73
2022/05/30 10:33:01;;;;;;;3.03;1.20;;;23.70;57.90;;;;;;5107790;28;20027;-74
2022/05/30 10:35:54;;;;;;;4.10;1.10;;;24.80;56.00;;;;;;5107995;28;20096;-72
2022/05/30 10:38:58;;;;;;;3.10;1.27;;;25.90;54.70;;;;;;5090101;28;20415;-74
2022/05/30 10:41:38;;;;;;;12.38;6.55;;;26.80;53.60;;;;;;5108199;28;20020;-73
2022/05/30 10:44:24;;;;;;;4.35;1.13;;;27.10;52.60;;;;;;5089607;28;20400;-73
2022/05/30 10:47:11;;;;;;;3.73;1.07;;;27.20;52.90;;;;;;5096839;28;20049;-72
2022/05/30 10:49:43;;;;;;;2.88;1.20;;;26.80;51.70;;;;;;5111638;28;20113;-74
2022/05/30 10:52:32;;;;;;;4.57;0.90;;;26.30;52.80;;;;;;5111636;28;20073;-73
2022/05/30 10:55:24;;;;;;;1.48;0.90;;;25.90;53.00;;;;;;5111771;28;20434;-74
2022/05/30 10:58:04;;;;;;;5.85;1.23;;;25.50;54.40;;;;;;5108638;28;20043;-73
2022/05/30 11:00:39;;;;;;;14.02;6.00;;;24.90;53.90;;;;;;5111590;28;20439;-75
2022/05/30 11:03:36;;;;;;;4.55;1.20;;;24.20;54.30;;;;;;5089561;28;20398;-74
2022/05/30 11:06:11;;;;;;;3.30;1.23;;;23.90;55.00;;;;;;5091147;28;20468;-75
2022/05/30 11:08:51;;;;;;;4.53;1.00;;;24.50;56.40;;;;;;5091161;28;20034;-74
2022/05/30 11:11:33;;;;;;;2.17;0.80;;;25.40;55.30;;;;;;5089646;28;20024;-74
2022/05/30 11:14:03;;;;;;;3.33;0.90;;;25.50;53.40;;;;;;5090399;28;20077;-73
2022/05/30 11:16:42;;;;;;;2.60;0.80;;;25.00;52.70;;;;;;5089889;28;20028;-74
2022/05/30 11:19:28;;;;;;;3.45;0.75;;;24.30;52.00;;;;;;5091040;28;20624;-76
2022/05/30 11:22:20;;;;;;;1.42;0.50;;;23.70;51.60;;;;;;5091319;28;20028;-73
2022/05/30 11:24:51;;;;;;;4.63;0.80;;;23.00;51.80;;;;;;5091134;28;20054;-74
2022/05/30 11:27:46;;;;;;;3.33;0.40;;;22.30;52.20;;;;;;5092084;28;20032;-74
2022/05/30 11:30:53;;;;;;;1.05;0.32;;;21.80;52.60;;;;;;5066627;28;20062;-73
2022/05/30 11:33:47;;;;;;;2.20;0.30;;;21.30;52.80;;;;;;5011511;28;20026;-74
2022/05/30 11:36:43;;;;;;;3.30;0.70;;;20.80;53.40;;;;;;5028208;28;20034;-74
2022/05/30 11:39:33;;;;;;;3.38;0.57;;;20.40;53.90;;;;;;5081789;28;20048;-74
2022/05/30 11:42:36;;;;;;;2.05;0.73;;;20.20;54.50;;;;;;5091037;28;20098;-73
2022/05/30 11:45:23;;;;;;;2.72;0.70;;;20.10;54.90;;;;;;5090815;28;20087;-73
2022/05/30 11:48:16;;;;;;;7.60;1.48;;;20.20;55.10;;;;;;5090419;28;20030;-75
2022/05/30 11:51:14;;;;;;;4.20;0.70;;;20.30;55.20;;;;;;5090865;28;20073;-74
2022/05/30 11:53:58;;;;;;;2.80;0.50;;;20.20;55.30;;;;;;5079922;28;20031;-75
2022/05/30 11:56:34;;;;;;;5.78;1.05;;;20.20;55.30;;;;;;5090158;28;20020;-73
2022/05/30 11:59:02;;;;;;;2.90;0.97;;;20.10;55.50;;;;;;5090561;28;20450;-74
2022/05/30 12:01:31;;;;;;;3.65;0.80;;;20.20;55.60;;;;;;5089578;28;20019;-73
2022/05/30 12:04:20;;;;;;;2.85;0.80;;;20.20;55.70;;;;;;5109795;28;20047;-74
2022/05/30 12:07:33;;;;;;;2.72;1.15;;;20.30;56.00;;;;;;5110639;28;20035;-73
2022/05/30 12:10:09;;;;;;;8.85;0.93;;;20.40;56.00;;;;;;5086833;28;20043;-74
2022/05/30 12:12:43;;;;;;;2.92;0.98;;;20.60;55.80;;;;;;5110463;28;20039;-73
2022/05/30 12:15:28;;;;;;;4.45;0.85;;;20.60;55.60;;;;;;5110265;28;20038;-75
2022/05/30 12:23:51;;;;;;;7.35;1.10;;;21.00;55.90;;;;;;5110423;28;20402;-74
2022/05/30 12:26:58;;;;;;;4.30;0.90;;;20.90;55.50;;;;;;5091776;28;20031;-73
2022/05/30 12:29:39;;;;;;;4.83;1.33;;;20.60;55.50;;;;;;5110421;28;20056;-74
2022/05/30 12:32:11;;;;;;;3.97;0.77;;;20.10;55.50;;;;;;5091728;28;20660;-74
2022/05/30 12:35:05;;;;;;;2.17;1.13;;;19.50;56.50;;;;;;5110456;28;20032;-75
2022/05/30 12:37:44;;;;;;;3.90;1.13;;;19.10;56.30;;;;;;5110178;28;20378;-73
2022/05/30 12:40:13;;;;;;;6.47;1.15;;;18.70;56.50;;;;;;5110231;28;20027;-74
2022/05/30 12:42:43;;;;;;;8.70;2.58;;;18.40;56.90;;;;;;5109807;28;20027;-73
2022/05/30 12:45:38;;;;;;;5.90;1.02;;;18.20;57.20;;;;;;5091873;28;20039;-74
2022/05/30 12:48:18;;;;;;;4.05;0.77;;;18.20;57.70;;;;;;5108261;28;20040;-74
2022/05/30 12:51:02;;;;;;;3.83;1.25;;;18.40;57.80;;;;;;5091579;28;20024;-74
2022/05/30 12:53:59;;;;;;;5.65;0.82;;;18.60;57.80;;;;;;5110232;28;20504;-74
2022/05/30 12:56:37;;;;;;;4.55;1.08;;;18.80;57.60;;;;;;5109954;28;20034;-74
2022/05/30 12:59:02;;;;;;;3.58;0.90;;;19.10;57.30;;;;;;5091514;28;20034;-76
2022/05/30 13:01:44;;;;;;;8.07;0.95;;;19.30;57.20;;;;;;5091948;28;20027;-72
2022/05/30 13:04:15;;;;;;;3.05;0.95;;;19.50;57.10;;;;;;5110030;28;20031;-74
2022/05/30 13:06:52;;;;;;;3.20;1.00;;;19.90;57.00;;;;;;5091385;28;20063;-74
2022/05/30 13:09:36;;;;;;;2.83;0.93;;;20.00;56.70;;;;;;5109532;28;20026;-74
2022/05/30 13:12:10;;;;;;;3.28;1.17;;;20.20;56.60;;;;;;5109341;28;20024;-75
2022/05/30 13:14:36;;;;;;;5.53;1.20;;;20.20;56.40;;;;;;5090885;28;20024;-74
2022/05/30 13:17:22;;;;;;;3.95;0.93;;;20.00;56.30;;;;;;5109442;28;20030;-75
2022/05/30 13:19:58;;;;;;;2.33;0.80;;;19.80;56.50;;;;;;5109577;28;20037;-75
2022/05/30 13:22:32;;;;;;;3.38;1.00;;;19.50;56.50;;;;;;5109564;28;20016;-73
2022/05/30 13:24:59;;;;;;;4.50;1.30;;;19.20;56.70;;;;;;5109110;28;20028;-73
2022/05/30 13:27:29;;;;;;;3.95;0.82;;;19.00;56.90;;;;;;5109150;28;20036;-72
2022/05/30 13:30:00;;;;;;;6.85;2.20;;;18.70;57.40;;;;;;5109402;28;20058;-74